Time;durP1;ratioP1;P1;durP2;ratioP2;P2;SDS_P1;SDS_P2;PMS_P1;PMS_P2;Temp;Humidity;BMP_temperature;BMP_pressure;BME280_temperature;BME280_humidity;BME280_pressure;Samples;Min_cycle;Max_cycle;Signal;HPM_P1;HPM_P2
2024/01/20 00:00:28;;;;;;;24.83;10.38;;;-1.10;99.90;;;;;;5039181;28;20021;-64
2024/01/20 00:02:54;;;;;;;26.30;10.93;;;-1.20;99.90;;;;;;5056842;28;20495;-64
2024/01/20 00:05:20;;;;;;;20.80;10.32;;;-1.10;99.90;;;;;;5057016;28;20029;-63
2024/01/20 00:07:45;;;;;;;20.05;10.27;;;-1.20;99.90;;;;;;5056944;28;20025;-64
2024/01/20 00:10:11;;;;;;;22.35;9.68;;;-1.10;99.90;;;;;;5056941;28;20032;-64
2024/01/20 00:12:38;;;;;;;20.73;10.18;;;-1.10;99.90;;;;;;5056849;28;20032;-63
2024/01/20 00:15:07;;;;;;;21.40;10.48;;;-1.10;99.90;;;;;;5056402;28;20461;-64
2024/01/20 00:17:33;;;;;;;;;;;-1.10;99.90;;;;;;5039034;28;20025;-64
2024/01/20 00:19:58;;;;;;;21.05;10.40;;;-1.10;99.90;;;;;;5056710;28;19905;-64
2024/01/20 00:22:24;;;;;;;19.95;10.90;;;-1.10;99.90;;;;;;5056495;28;20400;-64
2024/01/20 00:24:50;;;;;;;19.42;10.45;;;;;;;;;;5056638;28;20044;-63
2024/01/20 00:27:16;;;;;;;19.00;10.25;;;-1.10;99.90;;;;;;5056888;28;20025;-63
2024/01/20 00:29:42;;;;;;;20.33;10.70;;;-1.00;99.90;;;;;;5038639;28;20083;-64
2024/01/20 00:32:07;;;;;;;21.25;10.18;;;-0.60;99.90;;;;;;5056594;28;20025;-65
2024/01/20 00:34:33;;;;;;;23.33;10.40;;;-0.80;99.90;;;;;;5056705;28;20025;-64
2024/01/20 00:37:00;;;;;;;21.08;11.50;;;-1.10;99.90;;;;;;5056909;28;20033;-64
2024/01/20 00:39:26;;;;;;;19.38;10.07;;;-1.10;99.90;;;;;;5038695;28;20420;-64
2024/01/20 00:41:51;;;;;;;22.17;10.90;;;-1.00;99.90;;;;;;5056229;28;20075;-64
2024/01/20 00:44:17;;;;;;;18.88;10.18;;;-1.00;99.90;;;;;;5038468;28;20032;-64
2024/01/20 00:46:43;;;;;;;20.85;9.85;;;-1.10;99.90;;;;;;5038462;28;20120;-63
2024/01/20 00:49:08;;;;;;;23.50;11.38;;;-1.00;99.90;;;;;;5038327;28;20025;-63
2024/01/20 00:51:34;;;;;;;19.60;10.85;;;-1.00;99.90;;;;;;5056485;28;20078;-63
2024/01/20 00:54:00;;;;;;;19.33;10.52;;;-1.00;99.90;;;;;;5056111;28;20388;-63
2024/01/20 00:56:25;;;;;;;18.42;10.35;;;-1.00;99.90;;;;;;5055723;28;20036;-64
2024/01/20 00:58:51;;;;;;;19.85;10.77;;;-1.00;99.90;;;;;;5055846;28;20104;-63
2024/01/20 01:01:17;;;;;;;22.23;10.63;;;-0.90;99.90;;;;;;5055686;28;20052;-63
2024/01/20 01:03:42;;;;;;;24.40;11.60;;;-0.90;99.90;;;;;;5038069;28;20025;-64
2024/01/20 01:06:08;;;;;;;22.58;12.23;;;-0.90;99.90;;;;;;5056017;28;20025;-64
2024/01/20 01:08:34;;;;;;;20.92;10.95;;;-1.00;99.90;;;;;;5037937;28;20032;-64
2024/01/20 01:11:00;;;;;;;22.17;10.20;;;-1.00;99.90;;;;;;5037858;28;20431;-64
2024/01/20 01:13:26;;;;;;;24.48;11.45;;;-1.00;99.90;;;;;;5055496;28;20025;-64
2024/01/20 01:15:51;;;;;;;25.77;11.98;;;-1.00;99.90;;;;;;5055477;28;20454;-64
2024/01/20 01:18:17;;;;;;;21.05;10.80;;;-1.00;99.90;;;;;;5055377;28;20036;-64
2024/01/20 01:20:43;;;;;;;20.08;10.88;;;-1.00;99.90;;;;;;5055316;28;20025;-64
2024/01/20 01:23:08;;;;;;;23.63;11.88;;;-1.00;99.90;;;;;;5055842;28;20021;-64
2024/01/20 01:25:34;;;;;;;21.00;12.13;;;-1.00;99.90;;;;;;5037984;28;20033;-64
2024/01/20 01:28:00;;;;;;;22.80;11.18;;;-1.00;99.90;;;;;;5037787;28;20036;-64
2024/01/20 01:30:25;;;;;;;21.40;11.57;;;-1.00;99.90;;;;;;5055586;28;20021;-64
2024/01/20 01:32:51;;;;;;;23.33;10.70;;;-1.00;99.90;;;;;;5037886;28;20119;-64
2024/01/20 01:35:17;;;;;;;25.88;12.35;;;-1.00;99.90;;;;;;5055232;28;20029;-64
2024/01/20 01:37:42;;;;;;;24.88;10.75;;;-1.10;99.90;;;;;;5055241;28;20108;-64
2024/01/20 01:40:08;;;;;;;21.27;11.13;;;-1.00;99.90;;;;;;5037339;28;20025;-64
2024/01/20 01:42:34;;;;;;;24.08;12.02;;;-1.00;99.90;;;;;;5055242;28;20029;-64
2024/01/20 01:45:00;;;;;;;22.10;11.00;;;-1.00;99.90;;;;;;5055387;28;20431;-64
2024/01/20 01:47:25;;;;;;;20.33;11.00;;;-0.90;99.90;;;;;;5055049;28;20032;-64
2024/01/20 01:49:51;;;;;;;18.45;9.57;;;-1.00;99.90;;;;;;5055288;28;20025;-64
2024/01/20 01:52:18;;;;;;;22.02;13.23;;;-1.10;99.90;;;;;;5037139;28;20083;-64
2024/01/20 01:54:44;;;;;;;22.35;10.82;;;-1.00;99.90;;;;;;5072432;28;20055;-64
2024/01/20 01:57:11;;;;;;;22.55;11.80;;;-0.80;99.90;;;;;;5074871;28;20032;-65
2024/01/20 01:59:37;;;;;;;22.47;11.47;;;-1.10;99.90;;;;;;5074861;28;20107;-64
2024/01/20 02:02:03;;;;;;;21.38;11.30;;;-0.90;99.90;;;;;;5073551;28;20029;-64
2024/01/20 02:04:29;;;;;;;22.67;10.88;;;-1.00;99.90;;;;;;5073470;28;20468;-66
2024/01/20 02:06:55;;;;;;;22.85;11.48;;;-1.10;99.90;;;;;;5077283;28;20032;-65
2024/01/20 02:09:21;;;;;;;22.60;11.90;;;-1.10;99.90;;;;;;5075269;28;20073;-64
2024/01/20 02:11:47;;;;;;;21.88;11.27;;;-1.10;99.90;;;;;;5073655;28;20028;-64
2024/01/20 02:14:13;;;;;;;23.65;12.48;;;-1.20;99.90;;;;;;5073289;28;20025;-64
2024/01/20 02:16:39;;;;;;;28.02;12.05;;;-1.10;99.90;;;;;;5072878;28;20044;-64
2024/01/20 02:19:07;;;;;;;25.67;11.55;;;-1.20;99.90;;;;;;5074537;28;20025;-64
2024/01/20 02:21:34;;;;;;;;;;;-1.20;99.90;;;;;;5075139;28;20464;-64
2024/01/20 02:24:01;;;;;;;23.35;12.00;;;-1.20;99.90;;;;;;5074628;28;19950;-67
2024/01/20 02:26:28;;;;;;;25.80;11.82;;;-1.20;99.90;;;;;;5074938;28;20028;-65
2024/01/20 02:28:54;;;;;;;25.05;12.57;;;-1.20;99.90;;;;;;5075498;28;20024;-64
2024/01/20 02:31:20;;;;;;;24.90;12.35;;;-1.30;99.90;;;;;;5075431;28;20047;-64
2024/01/20 02:33:45;;;;;;;24.55;11.10;;;-1.20;99.90;;;;;;5076089;28;20448;-65
2024/01/20 02:36:11;;;;;;;21.55;11.45;;;-1.20;99.90;;;;;;5075330;28;20059;-65
2024/01/20 02:38:37;;;;;;;23.92;11.50;;;-0.80;99.90;;;;;;5075695;28;20028;-67
2024/01/20 02:41:02;;;;;;;25.67;11.75;;;-0.80;99.90;;;;;;5076512;28;20443;-65
2024/01/20 02:43:28;;;;;;;24.27;12.18;;;-1.20;99.90;;;;;;5075444;28;20035;-64
2024/01/20 02:45:54;;;;;;;25.20;12.60;;;-1.20;99.90;;;;;;5075124;28;20024;-65
2024/01/20 02:48:19;;;;;;;24.20;12.00;;;-1.30;99.90;;;;;;5074361;28;20379;-64
2024/01/20 02:50:45;;;;;;;24.27;11.70;;;-1.20;99.90;;;;;;5074165;28;20383;-64
2024/01/20 02:53:11;;;;;;;21.70;11.15;;;-1.30;99.90;;;;;;5068027;28;20495;-67
2024/01/20 02:55:36;;;;;;;24.02;12.75;;;-1.30;99.90;;;;;;5037125;28;20388;-64
2024/01/20 02:58:02;;;;;;;26.05;11.50;;;-1.00;99.90;;;;;;5055201;28;20032;-64
2024/01/20 03:00:28;;;;;;;27.77;13.18;;;-1.40;99.90;;;;;;5054614;28;20036;-64
2024/01/20 03:02:55;;;;;;;25.50;11.60;;;-1.50;99.90;;;;;;5054889;28;20380;-64
2024/01/20 03:05:20;;;;;;;25.30;12.93;;;-1.40;99.90;;;;;;5036974;28;20032;-64
2024/01/20 03:07:46;;;;;;;23.40;12.73;;;-1.40;99.90;;;;;;5037134;28;20024;-64
2024/01/20 03:10:13;;;;;;;21.70;12.20;;;-1.40;99.90;;;;;;5037207;28;20029;-64
2024/01/20 03:12:39;;;;;;;26.90;12.63;;;-1.40;99.90;;;;;;5054116;28;20469;-63
2024/01/20 03:15:09;;;;;;;25.13;11.65;;;-1.40;99.90;;;;;;5035770;28;20036;-63
2024/01/20 03:17:35;;;;;;;24.77;11.90;;;-1.30;99.90;;;;;;5053810;28;20029;-64
2024/01/20 03:20:01;;;;;;;22.58;12.48;;;-1.30;99.90;;;;;;5035783;28;20032;-69
2024/01/20 03:22:26;;;;;;;25.85;13.07;;;-1.30;99.90;;;;;;5054230;28;20017;-64
2024/01/20 03:24:52;;;;;;;22.27;11.20;;;-1.40;99.90;;;;;;5057911;28;20052;-64
2024/01/20 03:27:18;;;;;;;25.45;13.15;;;-1.30;99.90;;;;;;5057711;28;20488;-64
2024/01/20 03:29:44;;;;;;;26.48;12.82;;;-1.40;99.90;;;;;;5058011;28;20025;-65
2024/01/20 03:32:10;;;;;;;25.13;12.30;;;-1.40;99.90;;;;;;5057710;28;20040;-64
2024/01/20 03:34:36;;;;;;;23.10;11.38;;;-1.40;99.90;;;;;;5039836;28;20472;-64
2024/01/20 03:37:02;;;;;;;23.65;12.13;;;-1.40;99.90;;;;;;5057606;28;20025;-63
2024/01/20 03:39:28;;;;;;;26.45;12.90;;;-1.40;99.90;;;;;;5039710;28;20025;-63
2024/01/20 03:41:54;;;;;;;25.70;12.27;;;-1.40;99.90;;;;;;5039713;28;20025;-64
2024/01/20 03:44:20;;;;;;;28.17;12.25;;;-1.40;99.90;;;;;;5057113;28;20457;-64
2024/01/20 03:46:46;;;;;;;26.70;12.55;;;-1.20;99.90;;;;;;5057383;28;20032;-64
2024/01/20 03:49:12;;;;;;;24.38;11.55;;;-1.40;99.90;;;;;;5057045;28;20025;-63
2024/01/20 03:51:38;;;;;;;21.85;10.88;;;-1.30;99.90;;;;;;5057268;28;20029;-64
2024/01/20 03:54:04;;;;;;;25.83;12.10;;;-1.30;99.90;;;;;;5064156;28;20132;-64
2024/01/20 03:56:30;;;;;;;21.80;11.13;;;-1.20;99.90;;;;;;5077170;28;20078;-64
2024/01/20 03:58:56;;;;;;;20.88;10.50;;;-1.30;99.90;;;;;;5077148;28;20031;-63
2024/01/20 04:01:21;;;;;;;22.90;10.23;;;-1.30;99.90;;;;;;5077158;28;20484;-63
2024/01/20 04:03:47;;;;;;;20.77;10.27;;;-1.10;99.90;;;;;;5077024;28;20111;-63
2024/01/20 04:06:13;;;;;;;16.63;9.35;;;-1.10;99.90;;;;;;5077262;28;20082;-64
2024/01/20 04:08:38;;;;;;;21.38;9.75;;;-1.20;99.90;;;;;;5075870;28;20499;-63
2024/01/20 04:11:05;;;;;;;18.73;9.07;;;-0.90;99.90;;;;;;5076885;28;20149;-63
2024/01/20 04:13:30;;;;;;;19.00;9.80;;;-1.10;99.90;;;;;;5075568;28;20029;-64
2024/01/20 04:15:56;;;;;;;17.48;9.57;;;-1.10;99.90;;;;;;5076740;28;20036;-65
2024/01/20 04:18:22;;;;;;;22.60;10.55;;;-1.20;99.90;;;;;;5075711;28;20524;-64
2024/01/20 04:20:48;;;;;;;18.75;9.15;;;-1.10;99.90;;;;;;5076971;28;20115;-64
2024/01/20 04:23:13;;;;;;;18.00;10.07;;;-1.10;99.90;;;;;;5076804;28;20380;-64
2024/01/20 04:25:39;;;;;;;22.67;10.20;;;-1.10;99.90;;;;;;5075571;28;20028;-63
2024/01/20 04:28:05;;;;;;;17.65;9.23;;;-1.10;99.90;;;;;;5076710;28;20021;-64
2024/01/20 04:30:30;;;;;;;18.00;9.30;;;-1.20;99.90;;;;;;5076325;28;20436;-63
2024/01/20 04:32:56;;;;;;;17.75;9.43;;;-1.20;99.90;;;;;;5076487;28;20033;-63
2024/01/20 04:35:22;;;;;;;17.25;9.55;;;-1.20;99.90;;;;;;5075105;28;20456;-64
2024/01/20 04:37:47;;;;;;;18.58;9.65;;;-1.20;99.90;;;;;;5076244;28;20036;-63
2024/01/20 04:40:13;;;;;;;20.48;9.00;;;-1.10;99.90;;;;;;5075343;28;20135;-63
2024/01/20 04:42:39;;;;;;;16.65;9.43;;;-1.10;99.90;;;;;;5076387;28;20028;-63
2024/01/20 04:45:05;;;;;;;18.55;9.23;;;-1.10;99.90;;;;;;5075154;28;20483;-64
2024/01/20 04:47:34;;;;;;;18.58;9.07;;;-1.20;99.90;;;;;;5075011;28;20024;-63
2024/01/20 04:50:00;;;;;;;20.38;10.30;;;-1.20;99.90;;;;;;5075094;28;20028;-63
2024/01/20 04:52:26;;;;;;;18.80;8.85;;;-1.20;99.90;;;;;;5075804;28;20029;-63
2024/01/20 04:54:52;;;;;;;19.25;9.10;;;-1.20;99.90;;;;;;5056207;28;20029;-63
2024/01/20 04:57:20;;;;;;;19.95;9.48;;;-1.20;99.90;;;;;;5038103;28;20539;-63
2024/01/20 04:59:47;;;;;;;21.90;9.68;;;-1.30;99.90;;;;;;5056057;28;20029;-63
2024/01/20 05:02:12;;;;;;;19.10;9.15;;;-1.30;99.90;;;;;;5038526;28;20021;-63
2024/01/20 05:04:38;;;;;;;15.73;8.35;;;-1.20;99.90;;;;;;5055982;28;20086;-63
2024/01/20 05:07:04;;;;;;;15.00;7.88;;;-1.30;99.90;;;;;;5055619;28;20017;-64
2024/01/20 05:09:29;;;;;;;20.20;9.00;;;-1.30;99.90;;;;;;5055533;28;20025;-63
2024/01/20 05:11:55;;;;;;;15.13;8.45;;;-1.20;99.90;;;;;;5055909;28;20032;-63
2024/01/20 05:14:21;;;;;;;19.10;9.35;;;-1.20;99.90;;;;;;5055718;28;20036;-63
2024/01/20 05:16:46;;;;;;;18.98;8.88;;;-1.20;99.90;;;;;;5037756;28;20041;-63
2024/01/20 05:19:12;;;;;;;18.38;9.13;;;-1.30;99.90;;;;;;5037732;28;20074;-63
2024/01/20 05:21:38;;;;;;;17.48;8.38;;;-1.20;99.90;;;;;;5055897;28;20025;-63
2024/01/20 05:24:04;;;;;;;18.00;8.23;;;-1.20;99.90;;;;;;5037603;28;20095;-63
2024/01/20 05:26:30;;;;;;;15.85;7.82;;;-1.30;99.90;;;;;;5055451;28;20120;-63
2024/01/20 05:28:56;;;;;;;16.00;8.27;;;-1.20;99.90;;;;;;5037563;28;20056;-63
2024/01/20 05:31:24;;;;;;;20.90;8.35;;;-1.20;99.90;;;;;;5037513;28;20024;-64
2024/01/20 05:33:50;;;;;;;16.63;8.88;;;-1.30;99.90;;;;;;5037454;28;20090;-63
2024/01/20 05:36:16;;;;;;;17.02;8.00;;;-0.80;99.90;;;;;;5037296;28;20039;-63
2024/01/20 05:38:42;;;;;;;19.48;8.68;;;-1.20;99.90;;;;;;5037493;28;20029;-63
2024/01/20 05:41:08;;;;;;;19.45;8.05;;;-1.00;99.90;;;;;;5055235;28;20021;-63
2024/01/20 05:43:33;;;;;;;18.88;8.52;;;-1.20;99.90;;;;;;5055188;28;20025;-63
2024/01/20 05:46:03;;;;;;;15.50;8.23;;;-1.20;99.90;;;;;;5037071;28;20033;-63
2024/01/20 05:48:30;;;;;;;19.00;9.27;;;-1.20;99.90;;;;;;5055029;28;20381;-63
2024/01/20 05:50:56;;;;;;;16.77;8.57;;;-1.20;99.90;;;;;;5055052;28;20111;-64
2024/01/20 05:53:22;;;;;;;20.20;9.15;;;-1.30;99.90;;;;;;5050139;28;20153;-63
2024/01/20 05:55:48;;;;;;;16.30;8.95;;;-1.30;99.90;;;;;;5073574;28;20037;-63
2024/01/20 05:58:14;;;;;;;19.42;8.90;;;-1.30;99.90;;;;;;5073646;28;20025;-63
2024/01/20 06:00:40;;;;;;;19.90;8.55;;;-1.30;99.90;;;;;;5074841;28;20103;-63
2024/01/20 06:03:06;;;;;;;21.15;9.93;;;-1.30;99.90;;;;;;5074746;28;20094;-63
2024/01/20 06:05:32;;;;;;;17.58;8.38;;;-1.30;99.90;;;;;;5074898;28;20461;-63
2024/01/20 06:07:58;;;;;;;20.17;10.05;;;-1.30;99.90;;;;;;5074500;28;20032;-63
2024/01/20 06:10:23;;;;;;;20.13;9.30;;;-1.30;99.90;;;;;;5074912;28;20032;-64
2024/01/20 06:12:49;;;;;;;19.60;9.48;;;-1.40;99.90;;;;;;5074914;28;20025;-63
2024/01/20 06:15:15;;;;;;;21.23;9.75;;;-1.40;99.90;;;;;;5074245;28;20041;-63
2024/01/20 06:17:41;;;;;;;16.25;9.05;;;-1.40;99.90;;;;;;5074472;28;20035;-63
2024/01/20 06:20:07;;;;;;;21.25;10.13;;;-1.50;99.90;;;;;;5074138;28;20032;-63
2024/01/20 06:22:32;;;;;;;19.90;9.40;;;-1.50;99.90;;;;;;5074631;28;20031;-63
2024/01/20 06:24:58;;;;;;;17.90;9.70;;;-1.40;99.90;;;;;;5074538;28;20372;-63
2024/01/20 06:27:24;;;;;;;18.30;9.23;;;-1.20;99.90;;;;;;5074561;28;20371;-63
2024/01/20 06:29:50;;;;;;;18.17;9.07;;;-1.50;99.90;;;;;;5072982;28;20028;-63
2024/01/20 06:32:16;;;;;;;16.90;8.95;;;-1.50;99.90;;;;;;5074259;28;20037;-63
2024/01/20 06:34:41;;;;;;;16.98;9.10;;;-1.50;99.90;;;;;;5073024;28;20035;-64
2024/01/20 06:37:07;;;;;;;17.30;10.10;;;-1.50;99.90;;;;;;5074309;28;20035;-63
2024/01/20 06:39:33;;;;;;;17.08;9.05;;;-1.50;99.90;;;;;;5072896;28;20479;-63
2024/01/20 06:41:58;;;;;;;17.80;8.48;;;-1.50;99.90;;;;;;5072784;28;20029;-63
2024/01/20 06:44:24;;;;;;;16.95;9.25;;;-1.20;99.90;;;;;;5074329;28;20025;-63
2024/01/20 06:46:49;;;;;;;18.58;8.85;;;-1.50;99.90;;;;;;5072763;28;20024;-64
2024/01/20 06:49:16;;;;;;;17.92;9.13;;;-1.40;99.90;;;;;;5072708;28;20016;-63
2024/01/20 06:51:44;;;;;;;15.98;8.68;;;-1.40;99.90;;;;;;5074390;28;20517;-63
2024/01/20 06:54:10;;;;;;;19.40;9.15;;;-1.30;99.90;;;;;;5059127;28;20055;-63
2024/01/20 06:56:36;;;;;;;18.38;8.63;;;-1.50;99.90;;;;;;5053828;28;20033;-63
2024/01/20 06:59:02;;;;;;;16.58;8.23;;;-1.40;99.90;;;;;;5053299;28;20067;-63
2024/01/20 07:01:27;;;;;;;15.07;8.20;;;-1.40;99.90;;;;;;5036002;28;20021;-63
2024/01/20 07:03:53;;;;;;;19.30;9.50;;;-1.30;99.90;;;;;;5053569;28;20104;-63
2024/01/20 07:06:25;;;;;;;15.68;8.40;;;-1.40;99.90;;;;;;5053494;28;20483;-63
2024/01/20 07:08:51;;;;;;;14.88;8.23;;;-1.30;99.90;;;;;;5035845;28;20033;-63
2024/01/20 07:11:17;;;;;;;14.70;7.93;;;-1.30;99.90;;;;;;5035545;28;20025;-63
2024/01/20 07:13:43;;;;;;;19.77;8.18;;;-1.30;99.90;;;;;;5036088;28;20113;-64
2024/01/20 07:16:13;;;;;;;15.68;7.50;;;-1.20;99.90;;;;;;5053616;28;20064;-63
2024/01/20 07:18:39;;;;;;;17.38;7.65;;;-1.30;99.90;;;;;;5035842;28;20083;-64
2024/01/20 07:21:05;;;;;;;15.73;7.50;;;-1.20;99.90;;;;;;5053657;28;20036;-63
2024/01/20 07:23:31;;;;;;;16.52;7.15;;;-1.20;99.90;;;;;;5053621;28;20029;-64
2024/01/20 07:25:58;;;;;;;14.90;7.32;;;-1.20;99.90;;;;;;5053598;28;20423;-63
2024/01/20 07:28:25;;;;;;;13.80;7.25;;;-1.10;99.90;;;;;;5053673;28;20083;-63
2024/01/20 07:30:50;;;;;;;13.90;7.50;;;-1.10;99.90;;;;;;5036010;28;20182;-64
2024/01/20 07:33:16;;;;;;;12.57;6.70;;;-1.10;99.90;;;;;;5035388;28;20528;-63
2024/01/20 07:35:41;;;;;;;15.40;6.47;;;-1.00;99.90;;;;;;5053427;28;20037;-64
2024/01/20 07:38:07;;;;;;;13.43;6.43;;;-1.00;99.90;;;;;;5035644;28;20025;-64
2024/01/20 07:40:33;;;;;;;12.15;7.32;;;-1.00;99.90;;;;;;5053432;28;20029;-64
2024/01/20 07:42:58;;;;;;;13.95;6.57;;;-0.90;99.90;;;;;;5053448;28;20126;-64
2024/01/20 07:45:27;;;;;;;13.32;7.15;;;-0.90;99.90;;;;;;5053532;28;20435;-64
2024/01/20 07:47:52;;;;;;;14.75;6.68;;;-0.70;99.90;;;;;;5053355;28;20496;-64
2024/01/20 07:50:18;;;;;;;14.25;6.90;;;-0.90;99.90;;;;;;5053051;28;20037;-68
2024/01/20 07:52:44;;;;;;;16.15;6.93;;;-0.80;99.90;;;;;;5052990;28;20064;-63
2024/01/20 07:55:09;;;;;;;15.60;6.40;;;-0.60;99.90;;;;;;5053302;28;20079;-63
2024/01/20 07:57:35;;;;;;;11.68;6.38;;;-0.70;99.90;;;;;;5035987;28;20056;-63
2024/01/20 08:00:01;;;;;;;15.95;7.00;;;-0.60;99.90;;;;;;5035389;28;20423;-63
2024/01/20 08:02:27;;;;;;;11.05;5.53;;;-0.60;99.90;;;;;;5035482;28;20074;-63
2024/01/20 08:04:53;;;;;;;12.50;6.45;;;-0.50;99.90;;;;;;5035617;28;20123;-64
2024/01/20 08:07:18;;;;;;;13.02;6.25;;;-0.40;99.90;;;;;;5053342;28;20021;-64
2024/01/20 08:09:45;;;;;;;10.88;5.85;;;-0.30;99.90;;;;;;5056010;28;20033;-64
2024/01/20 08:12:10;;;;;;;10.02;5.63;;;-0.20;99.90;;;;;;5057123;28;20025;-64
2024/01/20 08:14:36;;;;;;;12.82;6.05;;;0.10;99.90;;;;;;5056585;28;20519;-64
2024/01/20 08:17:02;;;;;;;13.05;6.20;;;0.70;99.90;;;;;;5056550;28;20384;-64
2024/01/20 08:19:27;;;;;;;9.45;5.30;;;1.20;99.90;;;;;;5039113;28;20029;-64
2024/01/20 08:21:53;;;;;;;11.55;5.47;;;1.60;99.90;;;;;;5056521;28;20443;-63
2024/01/20 08:24:19;;;;;;;8.13;4.53;;;1.90;99.90;;;;;;5056301;28;20088;-64
2024/01/20 08:26:45;;;;;;;9.60;5.13;;;2.10;99.40;;;;;;5056313;28;20029;-64
2024/01/20 08:29:11;;;;;;;9.23;4.97;;;2.20;98.40;;;;;;5056570;28;20025;-64
2024/01/20 08:31:37;;;;;;;10.25;6.28;;;2.30;98.30;;;;;;5056829;28;20442;-65
2024/01/20 08:34:02;;;;;;;9.77;5.55;;;2.60;97.60;;;;;;5056494;28;20025;-64
2024/01/20 08:36:28;;;;;;;13.00;5.82;;;2.90;96.50;;;;;;5056542;28;20037;-64
2024/01/20 08:38:54;;;;;;;9.38;5.15;;;3.10;95.50;;;;;;5056481;28;20025;-64
2024/01/20 08:41:19;;;;;;;8.48;5.18;;;3.40;95.10;;;;;;5056451;28;20464;-64
2024/01/20 08:43:47;;;;;;;10.45;5.40;;;3.60;94.40;;;;;;5056336;28;20034;-64
2024/01/20 08:46:12;;;;;;;7.15;4.72;;;4.30;93.00;;;;;;5055993;28;20473;-64
2024/01/20 08:48:38;;;;;;;11.50;5.30;;;4.30;91.90;;;;;;5038280;28;20032;-63
2024/01/20 08:51:04;;;;;;;13.98;5.60;;;4.20;91.30;;;;;;5055847;28;20032;-64
2024/01/20 08:53:30;;;;;;;10.15;5.03;;;4.20;91.00;;;;;;5053592;28;20052;-64
2024/01/20 08:55:56;;;;;;;6.78;4.47;;;4.40;90.90;;;;;;5074872;28;20170;-64
2024/01/20 08:58:22;;;;;;;9.90;4.80;;;4.90;89.70;;;;;;5076101;28;20068;-65
2024/01/20 09:00:47;;;;;;;11.40;5.22;;;5.00;87.80;;;;;;5075745;28;20068;-65
2024/01/20 09:03:15;;;;;;;9.95;5.65;;;5.20;87.30;;;;;;5079040;28;20020;-65
2024/01/20 09:05:41;;;;;;;9.25;5.30;;;5.40;85.60;;;;;;5096218;28;20061;-65
2024/01/20 09:08:09;;;;;;;10.93;6.45;;;5.60;83.00;;;;;;5095725;28;20028;-65
2024/01/20 09:10:36;;;;;;;9.48;5.00;;;5.70;82.90;;;;;;5095922;28;20024;-64
2024/01/20 09:13:02;;;;;;;10.85;5.60;;;5.90;82.00;;;;;;5095461;28;20383;-65
2024/01/20 09:15:28;;;;;;;7.97;5.07;;;6.10;80.10;;;;;;5094379;28;20032;-65
2024/01/20 09:17:54;;;;;;;9.25;6.07;;;5.80;80.10;;;;;;5095958;28;20031;-65
2024/01/20 09:20:20;;;;;;;11.48;6.13;;;6.30;79.60;;;;;;5094109;28;20057;-65
2024/01/20 09:22:46;;;;;;;10.00;6.10;;;6.40;78.10;;;;;;5096454;28;20027;-65
2024/01/20 09:25:12;;;;;;;9.27;5.65;;;6.70;77.40;;;;;;5095855;28;20043;-65
2024/01/20 09:27:38;;;;;;;7.93;5.80;;;6.80;75.60;;;;;;5095983;28;20028;-65
2024/01/20 09:30:05;;;;;;;9.02;5.72;;;7.00;74.20;;;;;;5095757;28;20073;-65
2024/01/20 09:32:33;;;;;;;8.13;5.53;;;7.00;74.10;;;;;;5095665;28;20036;-65
2024/01/20 09:34:59;;;;;;;8.93;5.50;;;7.10;72.40;;;;;;5095611;28;20038;-65
2024/01/20 09:37:25;;;;;;;8.73;5.30;;;7.50;71.40;;;;;;5094257;28;20387;-65
2024/01/20 09:39:51;;;;;;;8.02;4.93;;;7.20;71.00;;;;;;5095926;28;20020;-65
2024/01/20 09:42:17;;;;;;;15.80;5.60;;;7.10;70.60;;;;;;5095173;28;20031;-65
2024/01/20 09:44:44;;;;;;;10.98;6.13;;;7.50;71.00;;;;;;5096996;28;20028;-65
2024/01/20 09:47:11;;;;;;;7.85;5.55;;;8.00;68.60;;;;;;5094134;28;20029;-65
2024/01/20 09:49:37;;;;;;;8.27;5.10;;;8.80;67.70;;;;;;5095325;28;20359;-65
2024/01/20 09:52:12;;;;;;;8.68;5.60;;;8.60;66.40;;;;;;5095505;28;20028;-65
2024/01/20 09:54:49;;;;;;;9.65;5.22;;;8.70;63.50;;;;;;5075870;28;20052;-65
2024/01/20 09:57:16;;;;;;;6.97;4.90;;;7.70;65.00;;;;;;5074896;28;20024;-65
2024/01/20 09:59:42;;;;;;;9.93;5.05;;;7.20;65.60;;;;;;5074776;28;20025;-65
2024/01/20 10:02:10;;;;;;;7.70;5.18;;;6.80;67.30;;;;;;5057356;28;20119;-65
2024/01/20 10:04:40;;;;;;;7.90;5.32;;;7.40;67.60;;;;;;5074462;28;20035;-65
2024/01/20 10:07:05;;;;;;;14.20;5.80;;;7.50;65.80;;;;;;5074743;28;20111;-65
2024/01/20 10:09:31;;;;;;;8.02;5.07;;;6.70;67.20;;;;;;5056514;28;20119;-66
2024/01/20 10:11:58;;;;;;;13.10;5.30;;;6.30;67.90;;;;;;5074574;28;20383;-66
2024/01/20 10:14:24;;;;;;;8.88;4.85;;;6.10;68.20;;;;;;5074822;28;20107;-66
2024/01/20 10:16:50;;;;;;;8.98;4.47;;;5.60;69.60;;;;;;5074661;28;20119;-66
2024/01/20 10:19:15;;;;;;;8.45;4.93;;;5.60;70.50;;;;;;5056966;28;20066;-67
2024/01/20 10:21:42;;;;;;;18.48;5.47;;;5.60;69.40;;;;;;5056916;28;20079;-67
2024/01/20 10:24:08;;;;;;;14.02;4.93;;;5.60;70.30;;;;;;5074492;28;20020;-67
2024/01/20 10:26:43;;;;;;;9.98;4.85;;;5.70;69.60;;;;;;5056517;28;20020;-66
2024/01/20 10:29:09;;;;;;;9.55;4.47;;;6.20;68.90;;;;;;5056427;28;20055;-66
2024/01/20 10:31:36;;;;;;;8.88;4.22;;;6.30;67.30;;;;;;5073916;28;20025;-66
2024/01/20 10:34:01;;;;;;;26.42;4.80;;;6.60;66.70;;;;;;5073693;28;20021;-67
2024/01/20 10:36:28;;;;;;;9.10;4.82;;;6.60;66.80;;;;;;5055940;28;20043;-67
2024/01/20 10:38:53;;;;;;;14.60;4.40;;;6.40;66.40;;;;;;5073762;28;20059;-67
2024/01/20 10:41:24;;;;;;;14.45;4.60;;;5.90;67.00;;;;;;5056463;28;20467;-66
2024/01/20 10:44:04;;;;;;;7.72;4.53;;;5.70;68.50;;;;;;5073902;28;20040;-67
2024/01/20 10:46:34;;;;;;;6.65;3.85;;;5.40;68.70;;;;;;5074485;28;20103;-67
2024/01/20 10:49:04;;;;;;;13.48;4.60;;;5.40;69.60;;;;;;5074183;28;20035;-66
2024/01/20 10:51:31;;;;;;;12.60;4.47;;;5.90;69.50;;;;;;5074398;28;20098;-67
2024/01/20 10:53:58;;;;;;;26.75;5.82;;;6.20;67.20;;;;;;5078909;28;20055;-67
2024/01/20 10:56:26;;;;;;;14.48;5.45;;;6.30;67.30;;;;;;5093211;28;20391;-67
2024/01/20 10:59:17;;;;;;;10.45;4.15;;;6.70;66.90;;;;;;5095723;28;20032;-67
2024/01/20 11:01:45;;;;;;;10.40;4.22;;;6.90;65.60;;;;;;5092275;28;20392;-66
2024/01/20 11:04:17;;;;;;;14.80;4.95;;;7.10;64.40;;;;;;5093506;28;20028;-66
2024/01/20 11:06:44;;;;;;;11.38;5.55;;;7.10;64.60;;;;;;5094262;28;20028;-66
2024/01/20 11:09:18;;;;;;;11.15;4.72;;;7.80;64.00;;;;;;5092715;28;20028;-66
2024/01/20 11:12:04;;;;;;;10.10;4.80;;;8.50;62.20;;;;;;5094065;28;20464;-66
2024/01/20 11:14:31;;;;;;;7.90;4.78;;;9.00;59.10;;;;;;5093707;28;20485;-66
2024/01/20 11:16:57;;;;;;;6.57;4.05;;;8.90;58.80;;;;;;5093861;28;20078;-66
2024/01/20 11:19:23;;;;;;;8.10;3.88;;;9.20;57.40;;;;;;5094086;28;20031;-66
2024/01/20 11:21:48;;;;;;;5.55;3.75;;;9.20;56.90;;;;;;5094191;28;20380;-66
2024/01/20 11:24:17;;;;;;;9.98;3.78;;;8.90;57.10;;;;;;5092659;28;20031;-66
2024/01/20 11:26:43;;;;;;;13.88;4.20;;;9.60;55.90;;;;;;5086881;28;20472;-66
2024/01/20 11:29:09;;;;;;;12.80;4.43;;;9.30;55.50;;;;;;5073044;28;20036;-71
2024/01/20 11:31:35;;;;;;;12.65;4.00;;;9.20;55.70;;;;;;5086468;28;20032;-66
2024/01/20 11:34:02;;;;;;;4.93;3.67;;;8.90;56.60;;;;;;5092769;28;20028;-66
2024/01/20 11:36:33;;;;;;;7.03;3.75;;;8.70;55.30;;;;;;5092668;28;20028;-67
2024/01/20 11:38:59;;;;;;;13.57;4.55;;;8.70;56.10;;;;;;5091334;28;20028;-67
2024/01/20 11:41:25;;;;;;;17.73;4.35;;;9.00;55.50;;;;;;5092031;28;20103;-66
2024/01/20 11:43:51;;;;;;;10.35;4.68;;;9.70;55.30;;;;;;5095157;28;20047;-66
2024/01/20 11:46:17;;;;;;;7.07;4.13;;;9.40;53.60;;;;;;5092851;28;20028;-65
2024/01/20 11:48:44;;;;;;;10.15;3.85;;;9.20;55.30;;;;;;5098135;28;20016;-67
2024/01/20 11:51:10;;;;;;;25.60;5.45;;;9.50;55.40;;;;;;5098280;28;20016;-67
2024/01/20 11:53:36;;;;;;;15.02;3.88;;;9.40;54.90;;;;;;5072538;28;20049;-73
2024/01/20 11:56:03;;;;;;;16.00;3.70;;;9.20;55.10;;;;;;5039542;28;20033;-64
2024/01/20 11:58:32;;;;;;;10.30;3.83;;;9.30;55.90;;;;;;5039212;28;20052;-64
2024/01/20 12:00:59;;;;;;;11.65;3.80;;;9.20;54.00;;;;;;5064062;28;20074;-65
2024/01/20 12:03:28;;;;;;;8.90;3.50;;;9.30;55.40;;;;;;5077135;28;20028;-65
2024/01/20 12:05:54;;;;;;;;;;;9.10;54.20;;;;;;5077570;28;20020;-64
2024/01/20 12:08:20;;;;;;;14.25;3.50;;;9.30;52.80;;;;;;5064751;28;19924;-64
2024/01/20 12:10:46;;;;;;;48.90;5.68;;;9.40;54.00;;;;;;5056990;28;20033;-64
2024/01/20 12:13:13;;;;;;;6.65;3.50;;;9.40;53.60;;;;;;5039116;28;20071;-64
2024/01/20 12:15:40;;;;;;;10.93;4.43;;;9.10;52.20;;;;;;5056982;28;20110;-64
2024/01/20 12:18:06;;;;;;;7.35;3.22;;;8.60;52.30;;;;;;5038986;28;20033;-64
2024/01/20 12:20:32;;;;;;;10.68;3.30;;;8.70;53.20;;;;;;5062151;28;20368;-65
2024/01/20 12:22:59;;;;;;;9.82;2.92;;;8.90;52.20;;;;;;5076799;28;20024;-64
2024/01/20 12:25:32;;;;;;;6.18;3.08;;;9.50;50.60;;;;;;5058725;28;20039;-64
2024/01/20 12:27:58;;;;;;;8.50;3.72;;;10.10;49.40;;;;;;5076535;28;20063;-64
2024/01/20 12:30:24;;;;;;;8.77;2.95;;;10.90;49.30;;;;;;5058702;28;20380;-65
2024/01/20 12:32:50;;;;;;;14.00;2.58;;;11.30;46.20;;;;;;5058614;28;20052;-64
2024/01/20 12:35:18;;;;;;;7.50;2.90;;;10.70;46.20;;;;;;5076721;28;20452;-64